Tiempo atmosférico en la estación meteorológica de Piloña, Asturias (270 m.)



Fecha
DESCASC
Temp. máxima en grados centígrados (hora)
DESCASC
Temp. mínima en grados centígrados (hora)
DESCASC
Temp. media en grados centígrados
DESCASC
Racha de viento máxima en m/sg (hora)
DESCASC
Velocidad máxima media en intervalos de 10 minutos(hora)
DESCASC
Precipitaciones diarias en mm
DESCASC
Precipitaciones de 00:00 a 06:00 en mm
DESCASC
Precipitaciones de 06:00 a 12:00 en mm
DESCASC
Precipitaciones de 12:00 a 18:00 en mm
DESCASC
Precipitaciones de 18:00 a 24:00 en mm
DESCASC

Gráficas

Temp. máximas Temp. mínimas Temp. medias Precipitaciones Rachas de viento máximas Velocidades máximas media en intervalos de 10 minutos

Datos horarios

Fecha y hora oficial Temperatura (ºC) Velocidad del viento (km/h) Dirección del viento Racha (km/h) Dirección de racha Precipitación (mm) Presión (hPa) Tendencia (hPa) Humedad (%)
2020-01-25 23:00:00 6.8 3 Oeste 5 Oeste 0 -- -- 97
2020-01-25 22:00:00 8 0 Calma 4 Nordeste 0 -- -- 96
2020-01-25 21:00:00 8.4 2 Este 7 Nordeste 0 -- -- 95
2020-01-25 20:00:00 9 3 Noroeste 13 Nordeste 0 -- -- 92
2020-01-25 19:00:00 9.8 6 Norte 12 Nordeste 0 -- -- 88
2020-01-25 18:00:00 10.9 2 Nordeste 5 Sudeste 0 -- -- 83
2020-01-25 17:00:00 11.9 0 Calma 12 Nordeste 0 -- -- 78
2020-01-25 16:00:00 12.7 3 Norte 14 Noroeste 0 -- -- 73
2020-01-25 15:00:00 14.9 7 Norte 14 Este 0 -- -- 65
2020-01-25 14:00:00 13.6 4 Sudoeste 8 Sur 0 -- -- 65
2020-01-25 13:00:00 11.8 4 Sur 7 Sur 0 -- -- 75
2020-01-25 12:00:00 9.1 2 Sudoeste 4 Sudoeste 0 -- -- 86
2020-01-25 11:00:00 6.7 0 Calma 3 Sudoeste 0 -- -- 97
2020-01-25 10:00:00 4.7 0 Calma 3 Nordeste 0 -- -- 100
2020-01-25 09:00:00 3.8 0 Calma 3 Nordeste 0 -- -- 99
2020-01-25 08:00:00 3.8 0 Calma 2 Oeste 0 -- -- 99
2020-01-25 07:00:00 3.7 0 Calma 5 Sudoeste 0 -- -- 99
2020-01-25 06:00:00 3.5 2 Este 9 Sur 0 -- -- 98
2020-01-25 05:00:00 3.5 0 Calma 2 Oeste 0 -- -- 100
2020-01-25 04:00:00 3.1 0 Calma 0 Calma 0 -- -- 99
2020-01-25 03:00:00 3.2 0 Calma 2 Este 0 -- -- 98
2020-01-25 02:00:00 3.8 0 Calma 3 Nordeste 0 -- -- 98
2020-01-25 01:00:00 4.4 3 Nordeste 6 Nordeste 0 -- -- 97
2020-01-25 00:00:00 5.1 0 Calma 2 Noroeste 0 -- -- 95
2020-01-24 23:00:00 5.8 0 Calma 2 Sudoeste 0 -- -- 94
2020-01-24 22:00:00 6.4 0 Calma 4 Oeste 0 -- -- 91
2020-01-24 21:00:00 7.5 0 Calma 3 Oeste 0 -- -- 88
2020-01-24 20:00:00 8.5 0 Calma 5 Nordeste 0 -- -- 83
2020-01-24 19:00:00 9.9 0 Calma 12 Norte 0 -- -- 79
2020-01-24 18:00:00 11.5 5 Nordeste 12 Nordeste 0 -- -- 72
2020-01-24 17:00:00 13.1 4 Norte 12 Norte 0 -- -- 65
2020-01-24 16:00:00 14.5 3 Nordeste 10 Nordeste 0 -- -- 59
2020-01-24 15:00:00 14.9 4 Sur 7 Sur 0 -- -- 60
2020-01-24 14:00:00 12.6 3 Sur 9 Sudoeste 0 -- -- 71
2020-01-24 13:00:00 10.5 3 Oeste 5 Oeste 0 -- -- 78
2020-01-24 12:00:00 7.1 0 Calma 4 Sur 0 -- -- 100
2020-01-24 11:00:00 4.8 0 Calma 2 Sur 0 -- -- 100
2020-01-24 10:00:00 3.2 0 Calma 2 Oeste 0 -- -- 100
2020-01-24 09:00:00 3 0 Calma 2 Este 0 -- -- 100
2020-01-24 08:00:00 2.7 0 Calma 2 Nordeste 0 -- -- 100
2020-01-24 07:00:00 3.1 0 Calma 3 Norte 0 -- -- 100
2020-01-24 06:00:00 2.5 0 Calma 3 Nordeste 0 -- -- 100
2020-01-24 05:00:00 3 0 Calma 3 Norte 0 -- -- 100
2020-01-24 04:00:00 2.4 0 Calma 2 Oeste 0 -- -- 100
2020-01-24 03:00:00 3.1 0 Calma 3 Oeste 0 -- -- 99
2020-01-24 02:00:00 3.4 0 Calma 3 Nordeste 0 -- -- 100
2020-01-24 01:00:00 3.6 0 Calma 4 Norte 0 -- -- 99
2020-01-24 00:00:00 4 0 Calma 2 Este 0 -- -- 98
2020-01-23 23:00:00 4.3 0 Calma 4 Noroeste 0 -- -- 98
2020-01-23 22:00:00 5 0 Calma 3 Sudoeste 0 -- -- 97
2020-01-23 21:00:00 5.6 0 Calma 3 Sudeste 0 -- -- 95
2020-01-23 20:00:00 6.5 2 Sur 10 Este 0 -- -- 91
2020-01-23 19:00:00 7.3 3 Este 9 Este 0 -- -- 86
2020-01-23 18:00:00 8.3 4 Este 13 Este 0 -- -- 87
2020-01-23 17:00:00 9.2 3 Este 13 Este 0 -- -- 84
2020-01-23 16:00:00 9.4 6 Este 12 Sudeste 0 -- -- 82
2020-01-23 15:00:00 10.1 3 Sur 7 Sur 0 -- -- 82
2020-01-23 14:00:00 7.5 0 Calma 5 Sudoeste 0 -- -- 98
2020-01-23 13:00:00 5.6 2 Sur 5 Sudoeste 0.2 -- -- 100
2020-01-23 12:00:00 3.5 0 Calma 5 Sudoeste 0 -- -- 100
2020-01-23 11:00:00 2.4 2 Sudoeste 4 Oeste 0 -- -- 100
2020-01-23 10:00:00 1.7 2 Este 5 Este 0 -- -- 100
2020-01-23 09:00:00 1.8 0 Calma 5 Este 0 -- -- 100
2020-01-23 08:00:00 2.3 3 Este 6 Sur 0 -- -- 100
2020-01-23 07:00:00 2.3 0 Calma 4 Sudeste 0 -- -- 100
2020-01-23 06:00:00 2.8 0 Calma 4 Oeste 0 -- -- 100
2020-01-23 05:00:00 3.4 0 Calma 6 Oeste 0 -- -- 100
2020-01-23 04:00:00 3.9 3 Oeste 6 Sudoeste 0 -- -- 100
2020-01-23 03:00:00 4.1 0 Calma 4 Oeste 0 -- -- 100
2020-01-23 02:00:00 4 3 Oeste 8 Este 0 -- -- 100
2020-01-23 01:00:00 4.8 5 Este 8 Este 0 -- -- 100
2020-01-23 00:00:00 5.1 0 Calma 5 Nordeste 0 -- -- 99
2020-01-22 23:00:00 5.4 3 Este 7 Este 0 -- -- 99
2020-01-22 22:00:00 6 2 Este 7 Este 0 -- -- 98
2020-01-22 21:00:00 6.6 4 Este 10 Este 0 -- -- 98
2020-01-22 20:00:00 6.9 3 Este 5 Este 0 -- -- 98
2020-01-22 19:00:00 7.3 0 Calma 3 Nordeste 0.2 -- -- 98
2020-01-22 18:00:00 7.6 0 Calma 3 Sudeste 1.2 -- -- 97
2020-01-22 17:00:00 7.9 2 Nordeste 5 Este 1.4 -- -- 96
2020-01-22 16:00:00 8.4 2 Este 9 Este 0 -- -- 93
2020-01-22 15:00:00 8.3 0 Calma 8 Este 0.2 -- -- 93
2020-01-22 14:00:00 8.2 0 Calma 15 Nordeste 0.4 -- -- 95
2020-01-22 13:00:00 8 6 Nordeste 14 Este 0.8 -- -- 92
2020-01-22 12:00:00 7.9 3 Este 8 Nordeste 0.8 -- -- 94
2020-01-22 11:00:00 7.7 0 Calma 4 Este 0.6 -- -- 96
2020-01-22 10:00:00 7.5 0 Calma 10 Este 0.4 -- -- 96
2020-01-22 09:00:00 7.4 2 Sur 10 Este 0 -- -- 97
2020-01-22 08:00:00 7.3 5 Nordeste 18 Este 0.4 -- -- 100
2020-01-22 07:00:00 6.8 0 Calma 8 Nordeste 0.2 -- -- 100
2020-01-22 06:00:00 6.7 0 Calma 6 Nordeste 0.2 -- -- 100
2020-01-22 05:00:00 6.6 5 Este 8 Este 0.2 -- -- 100
2020-01-22 04:00:00 5.9 0 Calma 4 Norte 0.8 -- -- 100
2020-01-22 03:00:00 6.1 3 Nordeste 6 Nordeste 0.4 -- -- 100
2020-01-22 02:00:00 5.8 0 Calma 5 Este 1.2 -- -- 99
2020-01-22 01:00:00 5.7 0 Calma 8 Sudeste 0.6 -- -- 98
2020-01-22 00:00:00 5.8 3 Este 9 Sudeste 0.4 -- -- 97
2020-01-21 23:00:00 5.8 6 Este 28 Este 0.2 -- -- 94
2020-01-21 22:00:00 6.1 14 Este 27 Este 0 -- -- 89
2020-01-21 21:00:00 5.5 3 Sudeste 9 Sudeste 0 -- -- 90
2020-01-21 20:00:00 5.4 2 Sudeste 10 Sur 0 -- -- 90
2020-01-21 19:00:00 5.4 6 Sudeste 18 Sudeste 0 -- -- 88
2020-01-21 18:00:00 5.7 5 Sudeste 13 Este 0 -- -- 90
2020-01-21 17:00:00 6.1 6 Sudeste 21 Este 0 -- -- 87
2020-01-21 16:00:00 7 9 Este 27 Este 0 -- -- 78
2020-01-21 15:00:00 7.5 17 Este 33 Este 0 -- -- 72
2020-01-21 14:00:00 8.1 12 Este 24 Sudeste 0 -- -- 69
2020-01-21 13:00:00 8.7 6 Este 19 Sudeste 0 -- -- 75
2020-01-21 12:00:00 6.7 4 Sudeste 15 Este 0 -- -- 81
2020-01-21 11:00:00 6.3 3 Sudeste 18 Este 0 -- -- 81
2020-01-21 10:00:00 5.5 2 Este 11 Este 0 -- -- 81
2020-01-21 09:00:00 5.2 2 Sudeste 7 Este 0 -- -- 82
2020-01-21 08:00:00 5.2 3 Este 16 Este 0 -- -- 81
2020-01-21 07:00:00 5.6 6 Este 17 Este 0 -- -- 77
2020-01-21 06:00:00 5.1 0 Calma 4 Este 0 -- -- 84
2020-01-21 05:00:00 5 0 Calma 6 Este 0 -- -- 84
2020-01-21 04:00:00 4.6 2 Sudeste 10 Este 0 -- -- 86
2020-01-21 03:00:00 4.1 0 Calma 4 Sudoeste 0 -- -- 89
2020-01-21 02:00:00 4.2 0 Calma 5 Oeste 0 -- -- 87
2020-01-21 01:00:00 4.2 0 Calma 3 Sudoeste 0 -- -- 85
2020-01-21 00:00:00 4.2 0 Calma 5 Sur 0 -- -- 86
2020-01-20 23:00:00 4.4 2 Sudeste 22 Este 0 -- -- 82
2020-01-20 22:00:00 4.6 4 Este 10 Este 0 -- -- 81
2020-01-20 21:00:00 4.7 3 Este 14 Sudeste 0 -- -- 79
2020-01-20 20:00:00 4.8 4 Sudeste 16 Este 0 -- -- 77
2020-01-20 19:00:00 4.8 4 Este 14 Este 0 -- -- 78
2020-01-20 18:00:00 5.1 8 Este 22 Este 0 -- -- 77
2020-01-20 17:00:00 5.3 3 Sudeste 11 Este 0 -- -- 82
2020-01-20 16:00:00 4.9 7 Sudeste 27 Nordeste 0.4 -- -- 84
2020-01-20 15:00:00 4.6 13 Este 32 Este 0 -- -- 85
2020-01-20 14:00:00 5.7 9 Este 26 Este 0 -- -- 79
2020-01-20 13:00:00 6.4 13 Sudeste 33 Este 0 -- -- 79
2020-01-20 12:00:00 5.7 14 Este 29 Este 0 -- -- 77
2020-01-20 11:00:00 4.6 7 Este 21 Sudeste 0.2 -- -- 92
2020-01-20 10:00:00 3.3 14 Este 33 Este 0.6 -- -- 90
2020-01-20 09:00:00 3.6 11 Este 22 Este 0 -- -- 89
2020-01-20 08:00:00 3.5 7 Este 21 Nordeste 0.2 -- -- 90
2020-01-20 07:00:00 3.1 5 Este 19 Este 0.2 -- -- 92
2020-01-20 06:00:00 3.2 5 Este 16 Sudeste 0.6 -- -- 93
2020-01-20 05:00:00 3.2 4 Este 25 Este 0.8 -- -- 95
2020-01-20 04:00:00 3.7 6 Sudeste 22 Este 0.2 -- -- 92
2020-01-20 03:00:00 3.5 5 Este 18 Este 0 -- -- 92
2020-01-20 02:00:00 4 12 Este 42 Este 0.6 -- -- 88
2020-01-20 01:00:00 3.9 5 Sudeste 30 Este 0.4 -- -- 92
2020-01-20 00:00:00 5 10 Este 45 Este 0.2 -- -- 86
2020-01-19 23:00:00 6.6 15 Este 37 Este 0 -- -- 70
2020-01-19 22:00:00 6.1 12 Este 40 Este 0.4 -- -- 74
2020-01-19 21:00:00 6.6 14 Este 43 Este 0 -- -- 73
2020-01-19 20:00:00 6.4 7 Este 24 Este 0 -- -- 72
2020-01-19 19:00:00 6.5 9 Este 38 Este 0 -- -- 68
2020-01-19 18:00:00 7 7 Nordeste 32 Sudeste 0 -- -- 72
2020-01-19 17:00:00 7.2 14 Este 34 Este 0 -- -- 66
2020-01-19 16:00:00 7.5 12 Este 26 Este 0 -- -- 69
2020-01-19 15:00:00 7.7 9 Nordeste 29 Nordeste 0 -- -- 72
2020-01-19 14:00:00 8 8 Nordeste 30 Nordeste 0 -- -- 73
2020-01-19 13:00:00 8.4 10 Nordeste 33 Nordeste 0 -- -- 72
2020-01-19 12:00:00 8.5 11 Nordeste 30 Nordeste 0 -- -- 78
2020-01-19 11:00:00 7.6 7 Nordeste 23 Sudeste 0.6 -- -- 84
2020-01-19 10:00:00 7.6 9 Nordeste 25 Nordeste 0 -- -- 80
2020-01-19 09:00:00 7.2 4 Este 32 Nordeste 0 -- -- 83
2020-01-19 08:00:00 7.5 8 Nordeste 21 Este 0 -- -- 86
2020-01-19 07:00:00 7.2 3 Norte 24 Este 0.4 -- -- 90
2020-01-19 06:00:00 7.5 6 Este 28 Norte 0.2 -- -- 88
2020-01-19 05:00:00 7.6 20 Nordeste 42 Nordeste 1.6 -- -- 90
2020-01-19 04:00:00 7.9 14 Nordeste 55 Nordeste 1 -- -- 95
2020-01-19 03:00:00 7.9 10 Norte 32 Norte 1 -- -- 98
2020-01-19 02:00:00 7.1 3 Noroeste 12 Noroeste 0.4 -- -- 97
2020-01-19 01:00:00 6.9 0 Calma 5 Noroeste 0 -- -- 96
2020-01-19 00:00:00 7.4 0 Calma 12 Noroeste 0 -- -- 94
2020-01-18 23:00:00 7.5 0 Calma 4 Oeste 0 -- -- 93
2020-01-18 22:00:00 7.3 0 Calma 4 Nordeste 0 -- -- 94
2020-01-18 21:00:00 7.3 0 Calma 13 Oeste 0 -- -- 94
2020-01-18 20:00:00 7.6 4 Noroeste 14 Oeste 0.4 -- -- 93
2020-01-18 19:00:00 8.1 5 Oeste 23 Oeste 0.4 -- -- 92
2020-01-18 18:00:00 8.2 0 Calma 3 Norte 0 -- -- 93
2020-01-18 17:00:00 8.9 0 Calma 8 Noroeste 0 -- -- 95
2020-01-18 16:00:00 8.9 5 Oeste 31 Oeste 4.8 -- -- 93
2020-01-18 15:00:00 11.3 19 Norte 46 Norte 1.2 -- -- 81
2020-01-18 14:00:00 17.7 8 Sur 19 Sudoeste 0 -- -- 44
2020-01-18 13:00:00 17.3 4 Sur 9 Sur 0 -- -- 51
2020-01-18 12:00:00 14.9 2 Sudoeste 7 Sur 0 -- -- 59
2020-01-18 11:00:00 12.6 2 Sur 12 Este 0 -- -- 66
2020-01-18 10:00:00 8.8 2 Este 7 Este 0 -- -- 76
2020-01-18 09:00:00 6 0 Calma 4 Sur 0 -- -- 89
2020-01-18 08:00:00 5.8 0 Calma 5 Sudeste 0 -- -- 89
2020-01-18 07:00:00 5.9 2 Este 5 Este 0 -- -- 89
2020-01-18 06:00:00 6.3 2 Sudeste 12 Este 0 -- -- 86
2020-01-18 05:00:00 6.5 8 Este 17 Este 0 -- -- 85
2020-01-18 04:00:00 6.1 5 Este 10 Este 0 -- -- 88
2020-01-18 03:00:00 6 2 Noroeste 10 Este 0 -- -- 87
2020-01-18 02:00:00 6.4 4 Este 11 Este 0 -- -- 85
2020-01-18 01:00:00 6.3 4 Sudeste 13 Este 0 -- -- 85
2020-01-18 00:00:00 6.5 2 Sudeste 18 Este 0 -- -- 83
2020-01-17 23:00:00 5.4 0 Calma 6 Este 0 -- -- 90
2020-01-17 22:00:00 5.6 0 Calma 3 Este 0 -- -- 88
2020-01-17 21:00:00 6 3 Nordeste 5 Nordeste 0 -- -- 87
2020-01-17 20:00:00 6.9 2 Nordeste 5 Nordeste 0 -- -- 83
2020-01-17 19:00:00 7.9 0 Calma 11 Norte 0 -- -- 78
2020-01-17 18:00:00 9.2 5 Norte 13 Nordeste 0 -- -- 71
2020-01-17 17:00:00 11 7 Noroeste 30 Noroeste 0 -- -- 55
2020-01-17 16:00:00 12.9 8 Noroeste 25 Noroeste 0 -- -- 50
2020-01-17 15:00:00 13.3 13 Oeste 36 Noroeste 0 -- -- 48
2020-01-17 14:00:00 12.6 14 Oeste 35 Oeste 0 -- -- 52
2020-01-17 13:00:00 12.2 14 Oeste 37 Oeste 0 -- -- 53
2020-01-17 12:00:00 11.2 12 Oeste 35 Oeste 0 -- -- 61
2020-01-17 11:00:00 8.9 8 Noroeste 23 Noroeste 0 -- -- 73
2020-01-17 10:00:00 7.5 5 Oeste 14 Oeste 0 -- -- 83
2020-01-17 09:00:00 6.9 5 Noroeste 15 Oeste 0 -- -- 84
2020-01-17 08:00:00 7.4 4 Noroeste 14 Noroeste 0 -- -- 84
2020-01-17 07:00:00 8.2 8 Noroeste 19 Oeste 0 -- -- 82
2020-01-17 06:00:00 8.4 8 Noroeste 19 Oeste 0.2 -- -- 82
2020-01-17 05:00:00 9.1 8 Oeste 17 Oeste 0.2 -- -- 81
2020-01-17 04:00:00 9.8 4 Noroeste 20 Noroeste 0 -- -- 78
2020-01-17 03:00:00 9.2 6 Noroeste 18 Oeste 0 -- -- 80
2020-01-17 02:00:00 8.8 4 Noroeste 11 Oeste 0 -- -- 92
2020-01-17 01:00:00 8.5 3 Noroeste 6 Noroeste 0 -- -- 97
2020-01-17 00:00:00 9.1 3 Noroeste 7 Noroeste 0 -- -- 97
2020-01-16 23:00:00 9.3 3 Oeste 7 Sudoeste 0 -- -- 96
2020-01-16 22:00:00 9.9 2 Norte 4 Norte 0 -- -- 95
2020-01-16 21:00:00 11.3 2 Oeste 17 Norte 0 -- -- 92
2020-01-16 20:00:00 11.5 9 Nordeste 32 Nordeste 0 -- -- 89
2020-01-16 19:00:00 14.9 6 Nordeste 18 Sudoeste 0 -- -- 55
2020-01-16 18:00:00 16.2 10 Sudoeste 27 Sudoeste 0 -- -- 49
2020-01-16 17:00:00 16.7 15 Oeste 40 Oeste 0 -- -- 47
2020-01-16 16:00:00 17.5 21 Oeste 61 Sudoeste 0 -- -- 46
2020-01-16 15:00:00 18 19 Sudoeste 60 Sudoeste 0 -- -- 45
2020-01-16 14:00:00 17.8 23 Sudoeste 56 Oeste 0 -- -- 46
2020-01-16 13:00:00 17.8 23 Oeste 58 Sudoeste 0 -- -- 47
2020-01-16 12:00:00 17.5 5 Sudeste 29 Sur 0 -- -- 53
2020-01-16 11:00:00 16.9 7 Sudoeste 26 Sudoeste 0 -- -- 49
2020-01-16 10:00:00 15.7 4 Sudoeste 17 Sudoeste 0 -- -- 57
2020-01-16 09:00:00 15.9 13 Sudoeste 31 Sudoeste 0 -- -- 57
2020-01-16 08:00:00 15.2 8 Sudoeste 33 Sudoeste 0 -- -- 58
2020-01-16 07:00:00 12.5 5 Sudeste 14 Nordeste 0 -- -- 67
2020-01-16 06:00:00 11.7 3 Este 11 Este 0 -- -- 68
2020-01-16 05:00:00 8.3 4 Norte 15 Este 0 -- -- 90
2020-01-16 04:00:00 5.5 4 Norte 14 Sur 0 -- -- 100
2020-01-16 03:00:00 4.7 3 Nordeste 9 Noroeste 0 -- -- 99
2020-01-16 02:00:00 4.9 2 Norte 7 Nordeste 0 -- -- 99
2020-01-16 01:00:00 5.6 3 Oeste 7 Oeste 0 -- -- 99
2020-01-16 00:00:00 6 2 Oeste 7 Este 0 -- -- 98
2020-01-15 23:00:00 6.4 0 Calma 9 Sudoeste 0 -- -- 97
2020-01-15 22:00:00 7.4 0 Calma 6 Sur 0 -- -- 95
2020-01-15 21:00:00 8.1 2 Sudeste 8 Este 0 -- -- 93
2020-01-15 20:00:00 8.9 5 Este 21 Sudeste 0 -- -- 91
2020-01-15 19:00:00 9.5 11 Este 21 Este 0 -- -- 91
2020-01-15 18:00:00 10.3 3 Sudeste 15 Nordeste 0 -- -- 84
2020-01-15 17:00:00 10.6 8 Nordeste 17 Nordeste 0 -- -- 85
2020-01-15 16:00:00 11.5 6 Nordeste 13 Nordeste 0 -- -- 86
2020-01-15 15:00:00 11.5 6 Nordeste 12 Nordeste 0 -- -- 85
2020-01-15 14:00:00 12.3 0 Calma 10 Noroeste 0 -- -- 84
2020-01-15 13:00:00 13.3 7 Oeste 17 Oeste 0 -- -- 83
2020-01-15 12:00:00 12.3 3 Noroeste 12 Este 0 -- -- 87
2020-01-15 11:00:00 11.1 7 Norte 22 Nordeste 0.8 -- -- 90
2020-01-15 10:00:00 10.6 8 Oeste 32 Norte 1.2 -- -- 91
2020-01-15 09:00:00 14.3 6 Norte 15 Sudoeste 0 -- -- 63
2020-01-15 08:00:00 15.9 17 Sudoeste 40 Oeste 0 -- -- 48
2020-01-15 07:00:00 15.2 7 Oeste 38 Sudoeste 0 -- -- 51
2020-01-15 06:00:00 15.8 22 Sudoeste 44 Oeste 0 -- -- 48
2020-01-15 05:00:00 14.9 9 Sudeste 28 Sudeste 0 -- -- 51
2020-01-15 04:00:00 14.3 12 Este 21 Este 0 -- -- 53
2020-01-15 03:00:00 15.1 8 Este 22 Sur 0 -- -- 49
2020-01-15 02:00:00 15 14 Sudoeste 32 Sudoeste 0 -- -- 49
2020-01-15 01:00:00 13.7 8 Sur 23 Sudoeste 0 -- -- 52
2020-01-15 00:00:00 13.7 11 Sur 36 Sur 0 -- -- 51
2020-01-14 23:00:00 12.7 7 Sudoeste 33 Sudoeste 0 -- -- 55
2020-01-14 22:00:00 11.4 9 Sudoeste 19 Sudoeste 0 -- -- 59
2020-01-14 21:00:00 11.3 0 Calma 9 Sudeste 0 -- -- 59
2020-01-14 20:00:00 11.9 3 Sudeste 6 Sudeste 0 -- -- 57
2020-01-14 19:00:00 12.8 2 Noroeste 17 Sur 0 -- -- 51
2020-01-14 18:00:00 14 6 Sudoeste 25 Sudoeste 0 -- -- 47
2020-01-14 17:00:00 15.2 5 Sur 27 Sur 0 -- -- 43
2020-01-14 16:00:00 16 15 Sur 31 Sur 0 -- -- 41
2020-01-14 15:00:00 16 10 Sudoeste 40 Sur 0 -- -- 45
2020-01-14 14:00:00 15.4 12 Sur 31 Sudeste 0 -- -- 44
2020-01-14 13:00:00 16 8 Sudeste 15 Sur 0 -- -- 47
2020-01-14 12:00:00 12.8 6 Sudeste 20 Sudeste 0 -- -- 59
2020-01-14 11:00:00 12.2 7 Este 18 Este 0 -- -- 61
2020-01-14 10:00:00 11.8 6 Este 17 Este 0 -- -- 69
2020-01-14 09:00:00 11.6 12 Nordeste 22 Este 0 -- -- 71
2020-01-14 08:00:00 11.3 7 Este 17 Este 0.2 -- -- 71
2020-01-14 07:00:00 11.8 9 Este 15 Este 0 -- -- 66
2020-01-14 06:00:00 12 6 Este 12 Este 0 -- -- 62
2020-01-14 05:00:00 12.4 4 Este 16 Este 0 -- -- 55
2020-01-14 04:00:00 12.2 3 Sudeste 13 Este 0 -- -- 52
2020-01-14 03:00:00 12 3 Sudeste 10 Este 0 -- -- 51
2020-01-14 02:00:00 11.9 0 Calma 11 Nordeste 0 -- -- 52
2020-01-14 01:00:00 11.5 5 Este 14 Noroeste 0 -- -- 52
2020-01-14 00:00:00 12.1 2 Noroeste 19 Oeste 0 -- -- 49
2020-01-13 23:00:00 14.4 9 Oeste 32 Sur 0 -- -- 41
2020-01-13 22:00:00 13.9 13 Sur 31 Sudoeste 0 -- -- 43
2020-01-13 21:00:00 10.2 4 Este 14 Noroeste 0 -- -- 57
2020-01-13 20:00:00 7.2 0 Calma 5 Sudoeste 0 -- -- 79
2020-01-13 19:00:00 8.5 0 Calma 7 Nordeste 0 -- -- 72
2020-01-13 18:00:00 10.5 0 Calma 6 Este 0 -- -- 76
2020-01-13 17:00:00 11.9 0 Calma 5 Nordeste 0 -- -- 74
2020-01-13 16:00:00 13.8 2 Oeste 5 Oeste 0 -- -- 66
2020-01-13 15:00:00 13.5 0 Calma 5 Sudoeste 0 -- -- 63
2020-01-13 14:00:00 12.6 0 Calma 6 Sudoeste 0 -- -- 61
2020-01-13 13:00:00 10.3 2 Sur 5 Sur 0 -- -- 75
2020-01-13 12:00:00 6.6 3 Oeste 5 Sudoeste 0 -- -- 87
2020-01-13 11:00:00 3.2 2 Nordeste 4 Noroeste 0 -- -- 100
2020-01-13 10:00:00 1.2 4 Noroeste 6 Este 0 -- -- 99
2020-01-13 09:00:00 0.9 0 Calma 4 Oeste 0 -- -- 100
2020-01-13 08:00:00 1.7 0 Calma 6 Este 0 -- -- 99
2020-01-13 07:00:00 1.1 0 Calma 4 Nordeste 0 -- -- 99
2020-01-13 06:00:00 1.1 0 Calma 4 Norte 0 -- -- 97
2020-01-13 05:00:00 2.4 0 Calma 3 Nordeste 0 -- -- 98
2020-01-13 04:00:00 1.9 0 Calma 2 Sudoeste 0 -- -- 97
2020-01-13 03:00:00 2.5 0 Calma 3 Noroeste 0 -- -- 98
2020-01-13 02:00:00 2.1 0 Calma 2 Sudoeste 0 -- -- 97
2020-01-13 01:00:00 2.7 0 Calma 3 Este 0 -- -- 96
2020-01-13 00:00:00 3.1 0 Calma 2 Noroeste 0 -- -- 94
2020-01-12 23:00:00 3.8 0 Calma 5 Noroeste 0 -- -- 91
2020-01-12 22:00:00 4.8 0 Calma 3 Nordeste 0 -- -- 87
2020-01-12 21:00:00 5.8 0 Calma 2 Oeste 0 -- -- 82
2020-01-12 20:00:00 7.2 0 Calma 4 Nordeste 0 -- -- 79
2020-01-12 19:00:00 8.4 2 Nordeste 5 Nordeste 0 -- -- 75
2020-01-12 18:00:00 11.7 0 Calma 6 Sudeste 0 -- -- 61
2020-01-12 17:00:00 14.1 3 Sudeste 11 Sudeste 0 -- -- 51
2020-01-12 16:00:00 14.9 3 Sur 6 Sur 0 -- -- 55
2020-01-12 15:00:00 13.4 2 Sudoeste 5 Sur 0 -- -- 58
2020-01-12 14:00:00 11 0 Calma 5 Sudoeste 0 -- -- 71
2020-01-12 13:00:00 8.4 2 Sudoeste 4 Sudoeste 0 -- -- 85
2020-01-12 12:00:00 5.1 0 Calma 3 Sudoeste 0 -- -- 93
2020-01-12 11:00:00 1.7 0 Calma 2 Sur 0 -- -- 100
2020-01-12 10:00:00 -1.1 0 Calma 2 Oeste 0 -- -- 100
2020-01-12 09:00:00 -1.7 0 Calma 2 Nordeste 0 -- -- 100
2020-01-12 08:00:00 -2.3 0 Calma 2 Noroeste 0 -- -- 100
2020-01-12 07:00:00 -2.1 0 Calma 2 Sudoeste 0 -- -- 100
2020-01-12 06:00:00 -1.8 0 Calma 4 Noroeste 0 -- -- 100
2020-01-12 05:00:00 -1 0 Calma 6 Noroeste 0 -- -- 99
2020-01-12 04:00:00 -0.5 0 Calma 4 Sudoeste 0 -- -- 98
2020-01-12 03:00:00 0 0 Calma 3 Noroeste 0 -- -- 99
2020-01-12 02:00:00 1.3 0 Calma 2 Nordeste 0 -- -- 99
2020-01-12 01:00:00 1.5 0 Calma 2 Sudoeste 0 -- -- 97
2020-01-12 00:00:00 2.4 0 Calma 2 Nordeste 0 -- -- 97
2020-01-11 23:00:00 3.2 0 Calma 2 Oeste 0 -- -- 96
2020-01-11 22:00:00 4.1 0 Calma 2 Norte 0 -- -- 94
2020-01-11 21:00:00 5 0 Calma 2 Noroeste 0 -- -- 90
2020-01-11 20:00:00 6.2 0 Calma 5 Nordeste 0 -- -- 85
2020-01-11 19:00:00 7.9 0 Calma 5 Nordeste 0 -- -- 78
2020-01-11 18:00:00 10.1 0 Calma 2 Sudoeste 0 -- -- 75
2020-01-11 17:00:00 12.9 0 Calma 4 Sudoeste 0 -- -- 64
2020-01-11 16:00:00 12.1 2 Sudoeste 4 Sudoeste 0 -- -- 75
2020-01-11 15:00:00 10.6 0 Calma 5 Sudoeste 0 -- -- 75
2020-01-11 14:00:00 9.9 3 Sur 5 Sudoeste 0 -- -- 77
2020-01-11 13:00:00 7 2 Sudoeste 6 Sur 0.2 -- -- 94
2020-01-11 12:00:00 4.3 2 Sur 4 Sur 0 -- -- 100
2020-01-11 11:00:00 1.2 0 Calma 4 Noroeste 0 -- -- 100
2020-01-11 10:00:00 0 0 Calma 2 Sudeste 0 -- -- 100
2020-01-11 09:00:00 -0.4 0 Calma 3 Sudeste 0 -- -- 100
2020-01-11 08:00:00 -0.4 0 Calma 3 Nordeste 0 -- -- 100
2020-01-11 07:00:00 0.7 0 Calma 2 Nordeste 0 -- -- 100
2020-01-11 06:00:00 1.3 0 Calma 2 Sudoeste 0 -- -- 100
2020-01-11 05:00:00 1.9 0 Calma 4 Este 0.2 -- -- 100
2020-01-11 04:00:00 2.2 0 Calma 3 Nordeste 0 -- -- 100
2020-01-11 03:00:00 3 0 Calma 3 Nordeste 0 -- -- 100
2020-01-11 02:00:00 3.8 0 Calma 2 Oeste 0 -- -- 100
2020-01-11 01:00:00 4.2 0 Calma 3 Oeste 0 -- -- 100
2020-01-11 00:00:00 4.6 0 Calma 3 Oeste 0 -- -- 100
2020-01-10 23:00:00 4.5 0 Calma 8 Este 0 -- -- 100
2020-01-10 22:00:00 5.1 0 Calma 5 Este 0 -- -- 99
2020-01-10 21:00:00 5.8 0 Calma 3 Nordeste 0 -- -- 97
2020-01-10 20:00:00 7 0 Calma 3 Nordeste 0 -- -- 96
2020-01-10 19:00:00 7.7 0 Calma 4 Este 0 -- -- 95
2020-01-10 18:00:00 8.5 2 Nordeste 7 Oeste 0 -- -- 94
2020-01-10 17:00:00 9.1 4 Oeste 8 Oeste 0 -- -- 91
2020-01-10 16:00:00 9.4 0 Calma 13 Oeste 0.6 -- -- 91
2020-01-10 15:00:00 9.9 6 Oeste 13 Oeste 0 -- -- 85
2020-01-10 14:00:00 10.1 8 Oeste 17 Oeste 0 -- -- 84
2020-01-10 13:00:00 9.9 8 Oeste 18 Oeste 0 -- -- 89
2020-01-10 12:00:00 8.6 4 Oeste 10 Oeste 0.4 -- -- 96
2020-01-10 11:00:00 6.7 4 Oeste 7 Oeste 0.6 -- -- 97
2020-01-10 10:00:00 5.8 0 Calma 2 Sudoeste 0.4 -- -- 98
2020-01-10 09:00:00 5.6 0 Calma 6 Noroeste 0.8 -- -- 97
2020-01-10 08:00:00 5.8 3 Noroeste 9 Noroeste 0 -- -- 97
2020-01-10 07:00:00 5.9 3 Oeste 9 Noroeste 1 -- -- 95
2020-01-10 06:00:00 6.2 0 Calma 8 Noroeste 0.8 -- -- 93
2020-01-10 05:00:00 6.9 0 Calma 18 Oeste 0.4 -- -- 86
2020-01-10 04:00:00 7.7 8 Noroeste 22 Noroeste 0 -- -- 75
2020-01-10 03:00:00 7.8 6 Noroeste 16 Oeste 0 -- -- 81
2020-01-10 02:00:00 7.6 5 Noroeste 20 Noroeste 0 -- -- 82
2020-01-10 01:00:00 8.1 5 Noroeste 21 Oeste 0 -- -- 77
2020-01-10 00:00:00 8.7 6 Noroeste 18 Noroeste 0 -- -- 72
2020-01-09 23:00:00 8.9 9 Noroeste 27 Oeste 0 -- -- 70
2020-01-09 22:00:00 8.3 6 Noroeste 15 Oeste 0 -- -- 71
2020-01-09 21:00:00 8.2 6 Noroeste 22 Noroeste 0 -- -- 72
2020-01-09 20:00:00 9.1 9 Noroeste 33 Oeste 0 -- -- 71
2020-01-09 19:00:00 9.4 9 Noroeste 23 Noroeste 0 -- -- 74
2020-01-09 18:00:00 9.7 4 Oeste 36 Noroeste 0.2 -- -- 83
2020-01-09 17:00:00 10 8 Noroeste 22 Noroeste 0.6 -- -- 90
2020-01-09 16:00:00 10.3 12 Oeste 35 Noroeste 0.2 -- -- 87
2020-01-09 15:00:00 12.1 11 Noroeste 41 Norte 0 -- -- 80
2020-01-09 14:00:00 17.9 6 Norte 20 Nordeste 0 -- -- 59
2020-01-09 13:00:00 13.3 3 Este 6 Este 0 -- -- 77
2020-01-09 12:00:00 11.6 3 Sur 6 Sudoeste 0 -- -- 78
2020-01-09 11:00:00 8.2 2 Sudeste 6 Sudoeste 0 -- -- 87
2020-01-09 10:00:00 4.9 2 Oeste 6 Oeste 0 -- -- 95
2020-01-09 09:00:00 4 3 Oeste 6 Nordeste 0 -- -- 95
2020-01-09 08:00:00 4.2 0 Calma 6 Oeste 0 -- -- 96
2020-01-09 07:00:00 4.3 0 Calma 4 Norte 0 -- -- 96
2020-01-09 06:00:00 4.8 0 Calma 4 Este 0 -- -- 94
2020-01-09 05:00:00 4.8 0 Calma 5 Oeste 0 -- -- 95
2020-01-09 04:00:00 5.5 0 Calma 10 Nordeste 0 -- -- 90
2020-01-09 03:00:00 5.3 0 Calma 3 Oeste 0 -- -- 93
2020-01-09 02:00:00 6.1 0 Calma 5 Sudoeste 0 -- -- 92
2020-01-09 01:00:00 6.8 0 Calma 3 Norte 0 -- -- 89
2020-01-09 00:00:00 7.6 0 Calma 3 Nordeste 0 -- -- 85
2020-01-08 23:00:00 8.8 0 Calma 4 Sur 0 -- -- 80
2020-01-08 22:00:00 9.3 0 Calma 4 Nordeste 0 -- -- 77
2020-01-08 21:00:00 9.9 2 Noroeste 5 Noroeste 0 -- -- 71
2020-01-08 20:00:00 11.5 2 Oeste 5 Oeste 0 -- -- 66
2020-01-08 19:00:00 13.4 0 Calma 5 Sudeste 0 -- -- 59
2020-01-08 18:00:00 15.1 0 Calma 9 Este 0 -- -- 55
2020-01-08 17:00:00 17.1 4 Sudeste 11 Este 0 -- -- 43
2020-01-08 16:00:00 17.1 5 Sudeste 11 Este 0 -- -- 42
2020-01-08 15:00:00 17.2 4 Sudeste 6 Sur 0 -- -- 44
2020-01-08 14:00:00 15.2 2 Sur 4 Sur 0 -- -- 49
2020-01-08 13:00:00 12.1 2 Sur 4 Sur 0 -- -- 62
2020-01-08 12:00:00 8.8 0 Calma 5 Este -- -- -- 79
2020-01-08 11:00:00 7.3 0 Calma 3 Sur -- -- -- 79
2020-01-08 10:00:00 3.7 0 Calma -- -- 0 -- -- 94
2020-01-08 09:00:00 2.7 0 Calma 0 Calma -- -- -- 92
2020-01-08 08:00:00 2.8 0 Calma 3 Este -- -- -- 94
2020-01-08 07:00:00 2.4 0 Calma 3 Nordeste -- -- -- 97
2020-01-08 06:00:00 2.1 0 Calma 3 Nordeste -- -- -- 96
2020-01-08 05:00:00 2.2 0 Calma 2 Noroeste -- -- -- 92
2020-01-08 04:00:00 2 0 Calma 2 Nordeste -- -- -- 94
2020-01-08 03:00:00 2.7 0 Calma 4 Nordeste -- -- -- 91
2020-01-08 02:00:00 2.8 0 Calma 0 Calma -- -- -- 93
2020-01-08 01:00:00 3.4 0 Calma 2 Noroeste -- -- -- 89
2020-01-08 00:00:00 3.7 0 Calma 4 Nordeste -- -- -- 88
2020-01-07 23:00:00 4.7 0 Calma 2 Noroeste -- -- -- 85
2020-01-07 22:00:00 5.3 0 Calma 2 Sudoeste -- -- -- 83
2020-01-07 21:00:00 6.3 0 Calma 0 Calma -- -- -- 80
2020-01-07 20:00:00 7.7 0 Calma 3 Noroeste -- -- -- 74
2020-01-07 19:00:00 9.3 0 Calma 8 Este -- -- -- 71
2020-01-07 18:00:00 11.4 5 Este 8 Este -- -- -- 61
2020-01-07 17:00:00 14.7 4 Sur 8 Sur -- -- -- 48
2020-01-07 16:00:00 15.2 3 Sudoeste 10 Oeste -- -- -- 44
2020-01-07 15:00:00 14.6 6 Sudoeste 12 Sudoeste -- -- -- 53
2020-01-07 14:00:00 12.4 3 Sudoeste 5 Oeste -- -- -- 61
2020-01-07 13:00:00 9.6 3 Sudoeste 4 Sudoeste -- -- -- 74
2020-01-07 12:00:00 6.3 0 Calma 3 Sudoeste -- -- -- 90
2020-01-07 11:00:00 3.3 0 Calma 2 Oeste -- -- -- 100
2020-01-07 10:00:00 0.2 0 Calma 3 Noroeste -- -- -- 100
2020-01-07 09:00:00 -0.7 0 Calma 5 Nordeste -- -- -- 100
2020-01-07 08:00:00 -0.2 0 Calma 4 Noroeste -- -- -- 100
2020-01-07 07:00:00 0.1 0 Calma 4 Este -- -- -- 100
2020-01-07 06:00:00 0.2 0 Calma 2 Oeste -- -- -- 100
2020-01-07 05:00:00 0.3 0 Calma 2 Noroeste -- -- -- 100
2020-01-07 04:00:00 0.8 0 Calma 2 Nordeste -- -- -- 100
2020-01-07 03:00:00 1.5 0 Calma 4 Sudeste -- -- -- 100
2020-01-07 02:00:00 1.4 0 Calma 5 Nordeste -- -- -- 99
2020-01-07 01:00:00 2.2 0 Calma 3 Noroeste -- -- -- 99
2020-01-07 00:00:00 3.7 0 Calma 4 Este -- -- -- 99
2020-01-06 23:00:00 4 0 Calma 2 Nordeste -- -- -- 97
2020-01-06 22:00:00 4.5 0 Calma 4 Noroeste -- -- -- 93
2020-01-06 21:00:00 6.3 2 Sudoeste 11 Este -- -- -- 90
2020-01-06 20:00:00 6.8 4 Este 13 Sudeste -- -- -- 91
2020-01-06 19:00:00 7.2 2 Este 10 Nordeste -- -- -- 89
2020-01-06 18:00:00 9.3 5 Norte 13 Este -- -- -- 82
2020-01-06 17:00:00 11.1 9 Este 18 Este -- -- -- 75
2020-01-06 16:00:00 11.8 6 Sur 15 Sudeste -- -- -- 73
2020-01-06 15:00:00 10.9 3 Sur 6 Sur -- -- -- 79
2020-01-06 14:00:00 10.6 0 Calma 4 Sudoeste -- -- -- 81
2020-01-06 13:00:00 9.4 0 Calma 5 Sudoeste -- -- -- 84
2020-01-06 12:00:00 6.9 3 Sur 5 Sudoeste -- -- -- 89
2020-01-06 11:00:00 3.7 2 Sudoeste 5 Noroeste -- -- -- 99
2020-01-06 10:00:00 2.3 2 Sudeste 8 Nordeste -- -- -- 100